createdAt,value
2017-12-08T00:01:53.275Z,7.67
2017-12-08T00:04:21.616Z,7.76
2017-12-08T00:06:49.969Z,8.21
2017-12-08T00:09:18.307Z,8.54
2017-12-08T00:11:46.638Z,8.52
2017-12-08T00:14:14.969Z,7.52
2017-12-08T00:16:43.289Z,8.44
2017-12-08T00:19:11.674Z,8.11
2017-12-08T00:21:40.014Z,7.97
2017-12-08T00:24:08.391Z,8.20
2017-12-08T00:26:36.678Z,7.85
2017-12-08T00:29:05.019Z,8.10
2017-12-08T00:31:33.399Z,8.23
2017-12-08T00:34:01.730Z,7.76
2017-12-08T00:36:30.074Z,8.06
2017-12-08T00:41:32.874Z,7.25
2017-12-08T00:44:01.319Z,8.12
2017-12-08T00:46:29.661Z,7.44
2017-12-08T00:48:58.004Z,8.57
2017-12-08T00:51:26.364Z,8.50
2017-12-08T00:53:54.699Z,7.91
2017-12-08T00:56:23.074Z,8.64
2017-12-08T00:58:51.414Z,8.58
2017-12-08T01:01:19.757Z,8.54
2017-12-08T01:03:48.096Z,8.46
2017-12-08T01:06:16.437Z,8.31
2017-12-08T01:08:44.797Z,8.55
2017-12-08T01:11:13.150Z,7.98
2017-12-08T01:13:41.507Z,8.64
2017-12-08T01:16:09.834Z,8.58
2017-12-08T01:18:38.181Z,7.66
2017-12-08T01:21:06.546Z,7.71
2017-12-08T01:23:34.881Z,7.55
2017-12-08T01:26:03.218Z,7.66
2017-12-08T01:28:31.549Z,7.73
2017-12-08T01:30:59.899Z,7.91
2017-12-08T01:33:28.269Z,8.44
2017-12-08T01:35:56.613Z,8.41
2017-12-08T01:38:24.964Z,7.81
2017-12-08T01:40:53.294Z,8.21
2017-12-08T01:43:21.639Z,7.95
2017-12-08T01:45:50.003Z,8.00
2017-12-08T01:48:18.347Z,8.01
2017-12-08T01:50:46.703Z,8.03
2017-12-08T01:53:15.038Z,7.58
2017-12-08T01:55:43.385Z,7.68
2017-12-08T01:58:11.797Z,8.00
2017-12-08T02:00:40.095Z,8.00
2017-12-08T02:03:08.432Z,8.47
2017-12-08T02:05:36.779Z,8.17
2017-12-08T02:08:05.118Z,7.57
2017-12-08T02:10:33.634Z,7.51
2017-12-08T02:13:01.999Z,7.76
2017-12-08T02:15:30.349Z,6.69
2017-12-08T02:17:58.693Z,7.00
2017-12-08T02:20:27.039Z,7.59
2017-12-08T02:22:55.418Z,8.17
2017-12-08T02:25:23.765Z,7.62
2017-12-08T02:27:52.106Z,6.65
2017-12-08T02:30:20.449Z,7.19
2017-12-08T02:32:49.011Z,6.90
2017-12-08T02:35:17.400Z,7.15
2017-12-08T02:37:45.750Z,7.60
2017-12-08T02:40:14.088Z,6.78
2017-12-08T02:42:42.426Z,7.60
2017-12-08T02:45:10.937Z,7.71
2017-12-08T02:47:39.324Z,7.26
2017-12-08T02:50:08.555Z,7.43
2017-12-08T02:52:36.914Z,7.49
2017-12-08T02:55:05.260Z,7.47
2017-12-08T02:57:33.608Z,6.90
2017-12-08T03:00:01.991Z,7.22
2017-12-08T03:02:30.343Z,7.45
2017-12-08T03:04:58.690Z,7.60
2017-12-08T03:07:27.046Z,7.58
2017-12-08T03:09:55.390Z,7.77
2017-12-08T03:12:23.874Z,7.24
2017-12-08T03:14:52.224Z,7.57
2017-12-08T03:17:20.571Z,7.89
2017-12-08T03:19:49.022Z,8.21
2017-12-08T03:22:17.368Z,7.63
2017-12-08T03:24:45.838Z,6.50
2017-12-08T03:27:14.178Z,7.57
2017-12-08T03:29:42.561Z,7.17
2017-12-08T03:32:10.899Z,6.47
2017-12-08T03:34:39.246Z,6.13
2017-12-08T03:37:07.624Z,6.71
2017-12-08T03:39:35.974Z,6.27
2017-12-08T03:42:04.319Z,6.47
2017-12-08T03:44:32.655Z,5.80
2017-12-08T03:47:01.004Z,6.33
2017-12-08T03:49:29.383Z,6.07
2017-12-08T03:51:57.722Z,6.99
2017-12-08T03:54:26.073Z,6.36
2017-12-08T03:56:54.427Z,6.13
2017-12-08T03:59:22.766Z,6.50
2017-12-08T04:01:51.146Z,7.08
2017-12-08T04:04:19.506Z,7.23
2017-12-08T04:06:47.856Z,6.73
2017-12-08T04:09:16.189Z,6.44
2017-12-08T04:11:44.658Z,6.48
2017-12-08T04:14:13.019Z,6.94
2017-12-08T04:16:41.357Z,6.91
2017-12-08T04:19:09.706Z,6.49
2017-12-08T04:21:38.058Z,6.93
2017-12-08T04:24:06.435Z,7.41
2017-12-08T04:26:34.793Z,7.08
2017-12-08T04:29:03.134Z,7.56
2017-12-08T04:31:31.486Z,7.50
2017-12-08T04:33:59.839Z,6.57
2017-12-08T04:36:28.208Z,6.39
2017-12-08T04:38:56.552Z,6.39
2017-12-08T04:41:24.912Z,6.17
2017-12-08T04:43:53.254Z,6.71
2017-12-08T04:46:21.605Z,6.61
2017-12-08T04:48:50.011Z,6.73
2017-12-08T04:51:18.351Z,6.75
2017-12-08T04:53:46.699Z,6.81
2017-12-08T04:56:15.046Z,6.11
2017-12-08T04:58:43.404Z,6.64
2017-12-08T05:01:11.782Z,6.43
2017-12-08T05:03:40.126Z,5.77
2017-12-08T05:06:08.476Z,6.02
2017-12-08T05:08:36.820Z,6.07
2017-12-08T05:11:05.171Z,5.42
2017-12-08T05:13:33.534Z,5.90
2017-12-08T05:16:01.878Z,5.71
2017-12-08T05:18:30.228Z,5.74
2017-12-08T05:20:58.584Z,5.14
2017-12-08T05:23:26.933Z,5.62
2017-12-08T05:25:55.310Z,5.80
2017-12-08T05:28:23.651Z,5.80
2017-12-08T05:30:52.027Z,6.36
2017-12-08T05:33:20.375Z,5.56
2017-12-08T05:35:48.717Z,5.17
2017-12-08T05:38:17.204Z,4.88
2017-12-08T05:40:45.590Z,5.64
2017-12-08T05:43:13.919Z,5.50
2017-12-08T05:45:42.255Z,4.49
2017-12-08T05:48:10.591Z,5.18
2017-12-08T05:50:38.963Z,5.25
2017-12-08T05:53:07.308Z,5.76
2017-12-08T05:55:35.657Z,4.10
2017-12-08T05:58:03.994Z,5.15
2017-12-08T06:00:32.329Z,4.65
2017-12-08T06:03:01.007Z,5.24
2017-12-08T06:05:29.342Z,4.42
2017-12-08T06:07:57.676Z,5.11
2017-12-08T06:10:26.019Z,4.76
2017-12-08T06:12:54.355Z,5.42
2017-12-08T06:15:22.723Z,4.65
2017-12-08T06:17:51.047Z,5.12
2017-12-08T06:20:19.391Z,4.65
2017-12-08T06:22:47.723Z,5.25
2017-12-08T06:25:16.058Z,5.12
2017-12-08T06:27:44.426Z,4.91
2017-12-08T06:30:12.786Z,4.61
2017-12-08T06:32:41.119Z,4.57
2017-12-08T06:35:09.472Z,4.83
2017-12-08T06:37:37.802Z,4.43
2017-12-08T06:40:06.166Z,4.84
2017-12-08T06:42:34.516Z,5.75
2017-12-08T06:45:02.858Z,5.23
2017-12-08T06:47:31.198Z,5.47
2017-12-08T06:49:59.634Z,5.59
2017-12-08T06:52:28.107Z,5.14
2017-12-08T06:54:57.048Z,5.12
2017-12-08T06:57:25.395Z,5.09
2017-12-08T06:59:53.747Z,4.95
2017-12-08T07:02:22.087Z,5.34
2017-12-08T07:04:50.458Z,5.01
2017-12-08T07:07:18.801Z,4.50
2017-12-08T07:09:47.149Z,4.82
2017-12-08T07:12:15.482Z,5.37
2017-12-08T07:14:43.826Z,5.37
2017-12-08T07:17:12.259Z,4.99
2017-12-08T07:19:40.558Z,4.86
2017-12-08T07:22:08.898Z,4.87
2017-12-08T07:24:37.247Z,4.71
2017-12-08T07:27:05.586Z,4.79
2017-12-08T07:29:33.955Z,3.98
2017-12-08T07:32:02.313Z,4.30
2017-12-08T07:34:30.647Z,4.17
2017-12-08T07:36:58.994Z,4.12
2017-12-08T07:39:27.339Z,4.28
2017-12-08T07:41:55.895Z,4.45
2017-12-08T07:44:24.242Z,4.47
2017-12-08T07:46:52.603Z,3.94
2017-12-08T07:49:20.935Z,3.94
2017-12-08T07:51:49.272Z,4.64
2017-12-08T07:54:17.650Z,4.01
2017-12-08T07:56:45.986Z,3.96
2017-12-08T07:59:14.331Z,4.26
2017-12-08T08:01:42.688Z,4.34
2017-12-08T08:04:11.026Z,4.04
2017-12-08T08:06:39.406Z,4.05
2017-12-08T08:09:07.751Z,4.48
2017-12-08T08:11:36.110Z,4.09
2017-12-08T08:14:04.490Z,4.69
2017-12-08T08:16:32.839Z,4.45
2017-12-08T08:19:01.177Z,4.82
2017-12-08T08:21:29.528Z,4.02
2017-12-08T08:23:57.870Z,4.05
2017-12-08T08:26:26.247Z,3.88
2017-12-08T08:28:54.587Z,3.49
2017-12-08T08:31:22.946Z,4.24
2017-12-08T08:33:51.279Z,4.69
2017-12-08T08:36:19.616Z,4.75
2017-12-08T08:38:48.004Z,4.23
2017-12-08T08:41:16.346Z,4.64
2017-12-08T08:43:44.703Z,4.91
2017-12-08T08:46:13.053Z,4.60
2017-12-08T08:48:41.398Z,4.68
2017-12-08T08:51:09.766Z,5.05
2017-12-08T08:53:38.115Z,4.96
2017-12-08T08:56:06.460Z,5.26
2017-12-08T08:58:34.823Z,4.86
2017-12-08T09:01:03.175Z,4.72
2017-12-08T09:03:31.548Z,4.64
2017-12-08T09:05:59.899Z,4.60
2017-12-08T09:08:28.259Z,4.57
2017-12-08T09:10:56.623Z,4.45
2017-12-08T09:13:24.961Z,3.61
2017-12-08T09:15:53.355Z,4.24
2017-12-08T09:18:21.706Z,4.57
2017-12-08T09:20:50.047Z,4.71
2017-12-08T09:23:18.390Z,3.96
2017-12-08T09:25:46.738Z,4.27
2017-12-08T09:28:15.121Z,3.84
2017-12-08T09:30:43.605Z,4.10
2017-12-08T09:33:11.938Z,5.02
2017-12-08T09:35:40.270Z,5.09
2017-12-08T09:38:08.602Z,4.24
2017-12-08T09:40:36.975Z,3.83
2017-12-08T09:43:05.338Z,4.51
2017-12-08T09:45:33.679Z,4.23
2017-12-08T09:48:02.042Z,3.70
2017-12-08T09:50:30.411Z,3.92
2017-12-08T09:52:58.775Z,3.80
2017-12-08T09:55:27.106Z,4.03
2017-12-08T09:57:55.455Z,3.59
2017-12-08T10:00:23.792Z,3.55
2017-12-08T10:02:52.133Z,3.14
2017-12-08T10:05:20.517Z,3.00
2017-12-08T10:07:48.851Z,3.13
2017-12-08T10:10:17.234Z,3.21
2017-12-08T10:12:45.568Z,3.11
2017-12-08T10:15:13.907Z,3.31
2017-12-08T10:17:42.303Z,3.41
2017-12-08T10:20:10.631Z,3.20
2017-12-08T10:22:38.959Z,3.79
2017-12-08T10:25:07.326Z,4.08
2017-12-08T10:27:35.673Z,3.81
2017-12-08T10:30:04.152Z,3.97
2017-12-08T10:32:32.494Z,3.92
2017-12-08T10:35:00.837Z,4.17
2017-12-08T10:37:29.185Z,3.91
2017-12-08T10:39:57.522Z,3.81
2017-12-08T10:42:25.911Z,4.29
2017-12-08T10:44:54.264Z,3.87
2017-12-08T10:47:22.610Z,4.19
2017-12-08T10:49:50.995Z,4.56
2017-12-08T10:52:19.471Z,4.16
2017-12-08T10:54:47.926Z,3.99
2017-12-08T10:57:16.282Z,3.84
2017-12-08T10:59:44.610Z,3.93
2017-12-08T11:02:12.954Z,4.16
2017-12-08T11:04:41.314Z,4.20
2017-12-08T11:07:09.839Z,3.99
2017-12-08T11:09:38.192Z,4.44
2017-12-08T11:12:06.533Z,4.31
2017-12-08T11:14:34.868Z,4.37
2017-12-08T11:17:03.198Z,4.38
2017-12-08T11:19:31.582Z,4.12
2017-12-08T11:21:59.914Z,4.50
2017-12-08T11:24:28.274Z,3.88
2017-12-08T11:26:56.629Z,4.98
2017-12-08T11:29:24.971Z,4.24
2017-12-08T11:31:53.352Z,4.41
2017-12-08T11:34:21.682Z,4.41
2017-12-08T11:36:50.796Z,4.82
2017-12-08T11:39:19.186Z,4.57
2017-12-08T11:41:47.560Z,4.42
2017-12-08T11:44:15.955Z,4.02
2017-12-08T11:46:44.305Z,4.11
2017-12-08T11:49:12.668Z,4.06
2017-12-08T11:51:40.987Z,4.20
2017-12-08T11:54:09.325Z,4.18
2017-12-08T11:56:37.709Z,4.08
2017-12-08T11:59:06.062Z,3.87
2017-12-08T12:01:34.407Z,3.96
2017-12-08T12:04:02.749Z,4.13
2017-12-08T12:06:31.096Z,3.90
2017-12-08T12:08:59.463Z,4.35
2017-12-08T12:11:27.816Z,4.42
2017-12-08T12:13:56.168Z,4.61
2017-12-08T12:16:24.511Z,4.87
2017-12-08T12:18:52.843Z,4.77
2017-12-08T12:21:21.232Z,4.37
2017-12-08T12:23:49.585Z,3.77
2017-12-08T12:26:17.931Z,4.46
2017-12-08T12:28:46.342Z,4.09
2017-12-08T12:31:14.720Z,4.07
2017-12-08T12:33:43.042Z,4.44
2017-12-08T12:36:11.388Z,4.29
2017-12-08T12:38:39.785Z,4.35
2017-12-08T12:41:08.120Z,4.37
2017-12-08T12:43:36.468Z,4.75
2017-12-08T12:46:04.801Z,4.49
2017-12-08T12:48:33.148Z,4.73
2017-12-08T12:51:01.520Z,4.17
2017-12-08T12:53:29.872Z,4.26
2017-12-08T12:55:58.203Z,4.01
2017-12-08T12:58:26.538Z,4.22
2017-12-08T13:00:54.885Z,4.14
2017-12-08T13:03:23.252Z,3.85
2017-12-08T13:05:51.663Z,4.38
2017-12-08T13:08:19.995Z,4.61
2017-12-08T13:10:48.380Z,4.35
2017-12-08T13:13:16.688Z,4.63
2017-12-08T13:15:45.059Z,4.56
2017-12-08T13:18:13.396Z,4.50
2017-12-08T13:20:41.745Z,4.94
2017-12-08T13:23:10.100Z,4.54
2017-12-08T13:25:38.426Z,4.26
2017-12-08T13:28:06.800Z,4.53
2017-12-08T13:30:35.138Z,4.57
2017-12-08T13:33:03.501Z,4.18
2017-12-08T13:35:31.847Z,4.31
2017-12-08T13:38:00.221Z,4.85
2017-12-08T13:40:28.711Z,5.24
2017-12-08T13:42:57.068Z,4.97
2017-12-08T13:45:25.411Z,5.10
2017-12-08T13:47:53.763Z,5.24
2017-12-08T13:50:22.842Z,4.90
2017-12-08T13:52:51.406Z,5.15
2017-12-08T13:55:31.470Z,4.74
2017-12-08T13:57:59.863Z,4.54
2017-12-08T14:00:28.190Z,4.55
2017-12-08T14:02:56.550Z,4.76
2017-12-08T14:05:24.883Z,4.64
2017-12-08T14:07:53.267Z,3.89
2017-12-08T14:10:21.639Z,4.86
2017-12-08T14:12:49.969Z,5.01
2017-12-08T14:15:18.323Z,4.15
2017-12-08T14:17:46.670Z,3.96
2017-12-08T14:20:15.014Z,4.97
2017-12-08T14:22:43.402Z,4.88
2017-12-08T14:25:11.758Z,3.90
2017-12-08T14:27:40.109Z,4.05
2017-12-08T14:30:08.453Z,4.30
2017-12-08T14:32:36.794Z,4.04
2017-12-08T14:35:05.160Z,3.86
2017-12-08T14:37:33.507Z,4.07
2017-12-08T14:40:01.871Z,3.70
2017-12-08T14:42:30.226Z,3.22
2017-12-08T14:44:58.558Z,3.01
2017-12-08T14:47:26.881Z,3.22
2017-12-08T14:49:55.230Z,2.94
2017-12-08T14:52:23.612Z,3.41
2017-12-08T14:54:51.951Z,2.76
2017-12-08T14:57:20.269Z,3.01
2017-12-08T14:59:48.617Z,3.10
2017-12-08T15:02:16.950Z,3.53
2017-12-08T15:04:45.335Z,3.42
2017-12-08T15:07:13.761Z,4.47
2017-12-08T15:09:42.114Z,4.15
2017-12-08T15:12:10.482Z,4.57
2017-12-08T15:14:38.829Z,4.07
2017-12-08T15:17:07.231Z,3.47
2017-12-08T15:19:35.593Z,3.46
2017-12-08T15:22:03.930Z,3.96
2017-12-08T15:24:32.267Z,3.49
2017-12-08T15:27:00.609Z,4.11
2017-12-08T15:29:28.976Z,4.10
2017-12-08T15:31:57.343Z,3.87
2017-12-08T15:34:25.682Z,4.01
2017-12-08T15:36:54.027Z,3.88
2017-12-08T15:39:22.391Z,3.56
2017-12-08T15:41:50.766Z,3.76
2017-12-08T15:44:19.111Z,3.92
2017-12-08T15:46:47.475Z,4.35
2017-12-08T15:49:15.818Z,4.22
2017-12-08T15:51:44.198Z,3.04
2017-12-08T15:54:12.537Z,3.18
2017-12-08T15:56:40.884Z,3.57
2017-12-08T15:59:09.235Z,3.45
2017-12-08T16:01:37.585Z,3.15
2017-12-08T16:04:06.069Z,3.45
2017-12-08T16:06:34.574Z,3.22
2017-12-08T16:09:02.907Z,3.92
2017-12-08T16:11:31.302Z,3.25
2017-12-08T16:13:59.611Z,3.77
2017-12-08T16:16:28.143Z,3.64
2017-12-08T16:18:56.498Z,3.38
2017-12-08T16:21:24.900Z,3.76
2017-12-08T16:23:53.270Z,3.57
2017-12-08T16:26:21.622Z,3.55
2017-12-08T16:28:50.015Z,3.65
2017-12-08T16:31:18.371Z,4.10
2017-12-08T16:33:46.762Z,3.44
2017-12-08T16:36:15.094Z,3.65
2017-12-08T16:38:43.432Z,2.72
2017-12-08T16:41:11.802Z,3.28
2017-12-08T16:43:40.146Z,3.74
2017-12-08T16:46:08.543Z,3.76
2017-12-08T16:48:36.905Z,3.83
2017-12-08T16:51:05.244Z,4.52
2017-12-08T16:53:33.630Z,4.31
2017-12-08T16:56:01.982Z,4.15
2017-12-08T16:58:30.453Z,4.16
2017-12-08T17:00:58.799Z,4.42
2017-12-08T17:03:27.127Z,4.25
2017-12-08T17:05:55.488Z,3.91
2017-12-08T17:08:23.819Z,3.36
2017-12-08T17:10:52.211Z,3.35
2017-12-08T17:13:20.549Z,3.12
2017-12-08T17:15:49.868Z,3.34
2017-12-08T17:18:18.214Z,3.53
2017-12-08T17:20:46.560Z,3.11
2017-12-08T17:23:14.926Z,3.25
2017-12-08T17:25:43.264Z,3.18
2017-12-08T17:28:11.600Z,3.53
2017-12-08T17:30:39.937Z,3.22
2017-12-08T17:33:08.261Z,3.63
2017-12-08T17:35:36.674Z,3.44
2017-12-08T17:38:04.993Z,4.14
2017-12-08T17:40:33.326Z,3.78
2017-12-08T17:43:01.776Z,4.14
2017-12-08T17:45:30.370Z,3.80
2017-12-08T17:47:58.858Z,2.95
2017-12-08T17:50:27.330Z,3.92
2017-12-08T17:52:55.848Z,3.56
2017-12-08T17:55:24.337Z,3.91
2017-12-08T17:57:52.992Z,3.09
2017-12-08T18:00:21.440Z,3.15
2017-12-08T18:02:49.844Z,3.38
2017-12-08T18:05:18.187Z,3.55
2017-12-08T18:07:49.639Z,3.19
2017-12-08T18:10:22.203Z,3.56
2017-12-08T18:12:54.112Z,3.37
2017-12-08T18:15:26.141Z,3.00
2017-12-08T18:17:56.333Z,3.28
2017-12-08T18:20:27.664Z,3.83
2017-12-08T18:22:57.427Z,3.68
2017-12-08T18:25:31.750Z,3.90
2017-12-08T18:28:04.527Z,3.90
2017-12-08T18:30:33.417Z,3.48
2017-12-08T18:33:02.273Z,3.64
2017-12-08T18:35:31.550Z,3.41
2017-12-08T18:38:00.279Z,3.65
2017-12-08T18:40:29.022Z,3.85
2017-12-08T18:42:57.531Z,3.95
2017-12-08T18:45:25.958Z,3.71
2017-12-08T18:47:55.134Z,3.94
2017-12-08T18:50:26.558Z,3.28
2017-12-08T18:52:55.167Z,3.93
2017-12-08T18:55:23.514Z,3.14
2017-12-08T18:57:51.850Z,3.74
2017-12-08T19:00:20.216Z,3.42
2017-12-08T19:02:48.574Z,3.45
2017-12-08T19:05:17.043Z,3.82
2017-12-08T19:07:45.391Z,3.42
2017-12-08T19:10:13.750Z,3.20
2017-12-08T19:12:42.086Z,2.99
2017-12-08T19:15:10.462Z,3.21
2017-12-08T19:17:39.056Z,3.10
2017-12-08T19:20:07.414Z,3.38
2017-12-08T19:22:35.767Z,3.65
2017-12-08T19:25:04.106Z,3.23
2017-12-08T19:27:32.480Z,3.63
2017-12-08T19:30:00.844Z,2.74
2017-12-08T19:32:29.176Z,2.62
2017-12-08T19:34:57.522Z,3.39
2017-12-08T19:37:25.858Z,3.35
2017-12-08T19:39:54.206Z,2.28
2017-12-08T19:42:22.735Z,2.77
2017-12-08T19:44:51.116Z,2.98
2017-12-08T19:47:20.365Z,2.39
2017-12-08T19:49:48.713Z,2.86
2017-12-08T19:52:17.062Z,2.24
2017-12-08T19:54:45.478Z,2.58
2017-12-08T19:57:13.912Z,1.92
2017-12-08T19:59:42.313Z,1.82
2017-12-08T20:02:10.649Z,2.00
2017-12-08T20:04:38.988Z,2.22
2017-12-08T20:07:07.322Z,1.84
2017-12-08T20:09:35.674Z,1.81
2017-12-08T20:12:04.041Z,1.81
2017-12-08T20:14:32.399Z,1.64
2017-12-08T20:17:00.740Z,1.64
2017-12-08T20:19:34.014Z,1.57
2017-12-08T20:22:02.354Z,1.48
2017-12-08T20:24:30.724Z,1.37
2017-12-08T20:26:59.075Z,1.67
2017-12-08T20:29:27.426Z,1.64
2017-12-08T20:31:55.794Z,1.39
2017-12-08T20:34:24.130Z,1.42
2017-12-08T20:36:52.512Z,1.04
2017-12-08T20:39:20.856Z,1.43
2017-12-08T20:41:49.218Z,1.58
2017-12-08T20:44:17.570Z,1.67
2017-12-08T20:46:45.915Z,2.12
2017-12-08T20:49:14.420Z,1.91
2017-12-08T20:51:42.762Z,1.37
2017-12-08T20:54:11.107Z,2.26
2017-12-08T20:56:39.458Z,1.86
2017-12-08T20:59:07.798Z,2.01
2017-12-08T21:01:36.162Z,2.02
2017-12-08T21:04:04.498Z,1.99
2017-12-08T21:06:32.838Z,1.73
2017-12-08T21:09:01.183Z,1.86
2017-12-08T21:11:29.540Z,2.04
2017-12-08T21:13:57.922Z,2.13
2017-12-08T21:16:26.275Z,2.34
2017-12-08T21:18:54.620Z,1.65
2017-12-08T21:21:22.954Z,1.85
2017-12-08T21:23:51.315Z,1.77
2017-12-08T21:26:19.684Z,2.11
2017-12-08T21:28:48.031Z,2.24
2017-12-08T21:31:16.380Z,2.21
2017-12-08T21:33:44.736Z,2.26
2017-12-08T21:36:13.069Z,2.27
2017-12-08T21:38:41.451Z,2.07
2017-12-08T21:41:09.802Z,2.28
2017-12-08T21:43:38.157Z,2.14
2017-12-08T21:46:06.542Z,1.41
2017-12-08T21:48:34.883Z,1.94
2017-12-08T21:51:03.251Z,1.86
2017-12-08T21:53:31.604Z,1.67
2017-12-08T21:55:59.967Z,2.04
2017-12-08T21:58:28.315Z,2.04
2017-12-08T22:00:56.710Z,2.16
2017-12-08T22:03:25.057Z,2.05
2017-12-08T22:05:53.403Z,2.27
2017-12-08T22:08:21.918Z,2.21
2017-12-08T22:10:50.290Z,2.24
2017-12-08T22:13:18.633Z,1.83
2017-12-08T22:15:46.967Z,2.19
2017-12-08T22:18:15.322Z,2.44
2017-12-08T22:20:43.711Z,2.50
2017-12-08T22:23:12.061Z,2.45
2017-12-08T22:25:40.402Z,2.24
2017-12-08T22:28:08.750Z,2.38
2017-12-08T22:30:37.098Z,2.69
2017-12-08T22:33:05.495Z,2.66
2017-12-08T22:35:33.830Z,2.56
2017-12-08T22:38:02.166Z,2.78
2017-12-08T22:40:30.542Z,2.70
2017-12-08T22:42:58.883Z,2.38
2017-12-08T22:45:27.261Z,3.00
2017-12-08T22:47:55.622Z,2.92
2017-12-08T22:50:23.972Z,3.04
2017-12-08T22:52:52.302Z,2.97
2017-12-08T22:55:20.630Z,3.57
2017-12-08T22:57:49.012Z,3.69
2017-12-08T23:00:32.014Z,3.49
2017-12-08T23:03:00.383Z,2.88
2017-12-08T23:05:28.730Z,2.69
2017-12-08T23:07:57.071Z,2.17
2017-12-08T23:10:25.435Z,2.87
2017-12-08T23:12:53.766Z,2.39
2017-12-08T23:15:22.122Z,2.95
2017-12-08T23:17:50.471Z,3.17
2017-12-08T23:20:18.805Z,2.59
2017-12-08T23:22:47.145Z,3.20
2017-12-08T23:25:15.470Z,3.68
2017-12-08T23:27:43.852Z,3.16
2017-12-08T23:30:12.187Z,3.29
2017-12-08T23:32:40.526Z,2.50
2017-12-08T23:35:08.889Z,3.00
2017-12-08T23:37:37.227Z,3.49
2017-12-08T23:40:05.613Z,3.96
2017-12-08T23:42:33.943Z,3.38
2017-12-08T23:45:02.283Z,2.95
2017-12-08T23:47:30.618Z,3.09
2017-12-08T23:49:58.984Z,3.29
2017-12-08T23:52:27.318Z,3.35
2017-12-08T23:54:55.824Z,2.65
2017-12-08T23:57:24.150Z,3.23
2017-12-08T23:59:52.496Z,2.91
